createdAt,value
2022-09-04T00:00:58.912Z,98117.63
2022-09-04T00:03:15.625Z,98115.31
2022-09-04T00:05:23.473Z,98123.38
2022-09-04T00:07:29.943Z,98114.63
2022-09-04T00:09:38.821Z,98119.22
2022-09-04T00:11:49.109Z,98119.16
2022-09-04T00:13:57.504Z,98121.59
2022-09-04T00:16:10.089Z,98124.38
2022-09-04T00:18:16.371Z,98124.69
2022-09-04T00:20:29.895Z,98120.38
2022-09-04T00:22:37.264Z,98119.72
2022-09-04T00:24:43.270Z,98127.09
2022-09-04T00:26:52.952Z,98124.63
2022-09-04T00:28:59.860Z,98124.78
2022-09-04T00:31:13.712Z,98126.72
2022-09-04T00:33:21.911Z,98120.09
2022-09-04T00:35:31.286Z,98123.03
2022-09-04T00:37:36.524Z,98126.91
2022-09-04T00:39:42.478Z,98124.56
2022-09-04T00:41:56.798Z,98127.66
2022-09-04T00:44:21.787Z,98122.66
2022-09-04T00:46:42.612Z,98126.44
2022-09-04T00:49:04.050Z,98133.00
2022-09-04T00:51:18.430Z,98129.84
2022-09-04T00:53:37.403Z,98139.84
2022-09-04T00:55:52.568Z,98139.16
2022-09-04T00:58:21.672Z,98142.91
2022-09-04T01:00:27.936Z,98139.75
2022-09-04T01:02:39.565Z,98143.50
2022-09-04T01:04:44.623Z,98141.88
2022-09-04T01:06:55.124Z,98149.78
2022-09-04T01:09:12.748Z,98147.28
2022-09-04T01:11:19.204Z,98143.13
2022-09-04T01:13:26.624Z,98148.56
2022-09-04T01:15:37.446Z,98154.94
2022-09-04T01:17:48.216Z,98161.38
2022-09-04T01:19:59.873Z,98162.47
2022-09-04T01:22:42.705Z,98162.78
2022-09-04T01:25:09.669Z,98163.88
2022-09-04T01:27:18.664Z,98165.56
2022-09-04T01:29:28.361Z,98162.38
2022-09-04T01:31:37.403Z,98165.31
2022-09-04T01:33:46.184Z,98175.56
2022-09-04T01:35:55.364Z,98167.94
2022-09-04T01:38:04.511Z,98170.75
2022-09-04T01:40:21.106Z,98173.66
2022-09-04T01:42:31.795Z,98174.09
2022-09-04T01:44:35.142Z,98178.00
2022-09-04T01:46:47.052Z,98184.41
2022-09-04T01:48:55.683Z,98179.28
2022-09-04T01:51:04.324Z,98177.75
2022-09-04T01:53:11.842Z,98185.78
2022-09-04T01:55:20.960Z,98191.22
2022-09-04T01:57:40.897Z,98185.25
2022-09-04T01:59:54.294Z,98188.03
2022-09-04T02:02:03.273Z,98185.69
2022-09-04T02:04:15.031Z,98195.38
2022-09-04T02:06:27.690Z,98182.44
2022-09-04T02:08:43.135Z,98186.91
2022-09-04T02:10:52.074Z,98185.22
2022-09-04T02:13:07.161Z,98186.38
2022-09-04T02:15:13.830Z,98183.06
2022-09-04T02:17:21.318Z,98190.38
2022-09-04T02:19:36.059Z,98190.81
2022-09-04T02:21:43.341Z,98195.41
2022-09-04T02:23:52.157Z,98200.00
2022-09-04T02:26:00.743Z,98192.09
2022-09-04T02:28:17.107Z,98193.88
2022-09-04T02:30:21.202Z,98200.00
2022-09-04T02:32:29.104Z,98196.66
2022-09-04T02:34:40.409Z,98204.69
2022-09-04T02:36:50.193Z,98202.34
2022-09-04T02:39:01.099Z,98198.34
2022-09-04T02:41:11.687Z,98200.28
2022-09-04T02:43:39.582Z,98198.63
2022-09-04T02:45:47.036Z,98198.06
2022-09-04T02:47:54.831Z,98206.09
2022-09-04T02:50:03.358Z,98214.00
2022-09-04T02:52:16.326Z,98195.72
2022-09-04T02:54:31.139Z,98208.88
2022-09-04T02:56:42.030Z,98211.38
2022-09-04T02:59:02.566Z,98208.88
2022-09-04T03:01:11.534Z,98221.38
2022-09-04T03:03:18.566Z,98215.28
2022-09-04T03:05:24.491Z,98213.75
2022-09-04T03:07:31.614Z,98221.94
2022-09-04T03:09:40.925Z,98214.31
2022-09-04T03:11:47.412Z,98211.94
2022-09-04T03:13:57.731Z,98220.13
2022-09-04T03:16:06.589Z,98213.34
2022-09-04T03:18:17.042Z,98220.53
2022-09-04T03:20:23.725Z,98216.13
2022-09-04T03:22:29.976Z,98216.41
2022-09-04T03:24:37.401Z,98208.50
2022-09-04T03:26:42.619Z,98208.78
2022-09-04T03:29:00.105Z,98215.00
2022-09-04T03:31:17.903Z,98215.28
2022-09-04T03:33:24.969Z,98218.88
2022-09-04T03:35:32.930Z,98210.28
2022-09-04T03:37:48.308Z,98217.63
2022-09-04T03:40:01.578Z,98217.78
2022-09-04T03:42:09.025Z,98216.38
2022-09-04T03:44:23.100Z,98216.66
2022-09-04T03:46:36.273Z,98218.47
2022-09-04T03:48:52.783Z,98223.03
2022-09-04T03:50:58.878Z,98226.75
2022-09-04T03:53:07.124Z,98226.91
2022-09-04T03:55:33.500Z,98223.72
2022-09-04T03:57:45.982Z,98226.34
2022-09-04T04:00:04.708Z,98226.50
2022-09-04T04:02:27.246Z,98230.75
2022-09-04T04:05:27.354Z,98232.84
2022-09-04T04:07:35.626Z,98225.31
2022-09-04T04:10:00.678Z,98236.38
2022-09-04T04:12:19.040Z,98238.47
2022-09-04T04:14:51.385Z,98232.63
2022-09-04T04:17:06.851Z,98234.44
2022-09-04T04:19:26.282Z,98239.81
2022-09-04T04:21:36.421Z,98245.91
2022-09-04T04:23:58.043Z,98247.72
2022-09-04T04:26:09.733Z,98248.69
2022-09-04T04:28:25.475Z,98254.78
2022-09-04T04:30:35.071Z,98257.56
2022-09-04T04:32:55.995Z,98257.56
2022-09-04T04:35:11.310Z,98262.81
2022-09-04T04:37:21.316Z,98265.19
2022-09-04T04:39:31.822Z,98267.94
2022-09-04T04:42:00.205Z,98268.91
2022-09-04T04:44:10.265Z,98270.84
2022-09-04T04:46:19.289Z,98281.50
2022-09-04T04:48:57.273Z,98279.69
2022-09-04T04:51:10.060Z,98283.28
2022-09-04T04:53:18.003Z,98288.53
2022-09-04T04:55:31.314Z,98286.06
2022-09-04T04:57:42.317Z,98292.44
2022-09-04T04:59:54.895Z,98293.50
2022-09-04T05:02:04.804Z,98297.69
2022-09-04T05:04:18.883Z,98296.44
2022-09-04T05:06:27.527Z,98293.00
2022-09-04T05:08:38.204Z,98303.59
2022-09-04T05:10:44.621Z,98310.59
2022-09-04T05:12:55.760Z,98313.94
2022-09-04T05:15:03.247Z,98321.72
2022-09-04T05:17:18.652Z,98327.69
2022-09-04T05:19:28.103Z,98336.19
2022-09-04T05:21:37.446Z,98336.88
2022-09-04T05:23:47.312Z,98332.34
2022-09-04T05:25:55.061Z,98336.38
2022-09-04T05:28:04.551Z,98346.66
2022-09-04T05:30:12.140Z,98350.69
2022-09-04T05:32:22.086Z,98367.16
2022-09-04T05:34:35.074Z,98367.88
2022-09-04T05:36:47.125Z,98370.88
2022-09-04T05:38:58.465Z,98371.28
2022-09-04T05:41:06.744Z,98374.84
2022-09-04T05:43:20.460Z,98365.25
2022-09-04T05:45:26.049Z,98377.19
2022-09-04T05:47:35.459Z,98376.78
2022-09-04T05:49:59.425Z,98378.16
2022-09-04T05:52:17.287Z,98388.28
2022-09-04T05:54:46.996Z,98390.00
2022-09-04T05:57:22.638Z,98391.56
2022-09-04T05:59:44.197Z,98397.88
2022-09-04T06:02:02.507Z,98400.97
2022-09-04T06:04:49.013Z,98397.03
2022-09-04T06:06:59.111Z,98409.59
2022-09-04T06:09:29.582Z,98408.06
2022-09-04T06:11:51.509Z,98408.25
2022-09-04T06:14:06.363Z,98408.66
2022-09-04T06:16:22.103Z,98415.69
2022-09-04T06:18:43.686Z,98415.72
2022-09-04T06:21:01.995Z,98423.91
2022-09-04T06:23:21.956Z,98425.00
2022-09-04T06:25:49.859Z,98425.13
2022-09-04T06:28:09.545Z,98426.84
2022-09-04T06:30:13.793Z,98430.94
2022-09-04T06:32:35.430Z,98429.69
2022-09-04T06:34:56.247Z,98433.22
2022-09-04T06:37:11.366Z,98436.94
2022-09-04T06:39:31.599Z,98437.78
2022-09-04T06:41:46.257Z,98438.50
2022-09-04T06:43:59.779Z,98446.13
2022-09-04T06:46:12.019Z,98446.66
2022-09-04T06:48:27.499Z,98455.81
2022-09-04T06:50:37.991Z,98457.47
2022-09-04T06:52:48.725Z,98454.47
2022-09-04T06:57:15.303Z,98462.94
2022-09-04T06:59:54.553Z,98453.47
2022-09-04T07:02:06.985Z,98461.88
2022-09-04T07:04:25.098Z,98462.66
2022-09-04T07:06:44.943Z,98468.13
2022-09-04T07:08:58.287Z,98460.88
2022-09-04T07:11:10.130Z,98470.59
2022-09-04T07:13:37.073Z,98464.22
2022-09-04T07:15:53.174Z,98468.34
2022-09-04T07:18:04.251Z,98465.63
2022-09-04T07:20:14.534Z,98477.94
2022-09-04T07:22:29.516Z,98484.31
2022-09-04T07:24:46.035Z,98486.63
2022-09-04T07:26:52.947Z,98485.16
2022-09-04T07:29:09.981Z,98490.03
2022-09-04T07:31:17.203Z,98491.91
2022-09-04T07:33:26.012Z,98498.81
2022-09-04T07:35:34.353Z,98501.53
2022-09-04T07:37:44.289Z,98491.47
2022-09-04T07:39:55.226Z,98493.22
2022-09-04T07:42:02.814Z,98490.25
2022-09-04T07:44:11.035Z,98485.16
2022-09-04T07:46:20.455Z,98479.44
2022-09-04T07:48:30.203Z,98489.09
2022-09-04T07:50:36.498Z,98488.72
2022-09-04T07:52:56.931Z,98488.41
2022-09-04T07:55:13.907Z,98500.03
2022-09-04T07:57:38.981Z,98499.44
2022-09-04T08:00:07.410Z,98503.91
2022-09-04T08:02:27.106Z,98502.31
2022-09-04T08:04:51.020Z,98505.25
2022-09-04T08:06:58.069Z,98511.69
2022-09-04T08:09:17.345Z,98513.88
2022-09-04T08:11:35.055Z,98511.72
2022-09-04T08:14:25.683Z,98525.00
2022-09-04T08:16:32.039Z,98517.19
2022-09-04T08:19:01.537Z,98522.16
2022-09-04T08:21:16.317Z,98509.91
2022-09-04T08:23:29.470Z,98521.91
2022-09-04T08:25:49.639Z,98524.88
2022-09-04T08:28:17.413Z,98519.91
2022-09-04T08:30:21.143Z,98521.19
2022-09-04T08:32:45.756Z,98527.56
2022-09-04T08:35:05.612Z,98533.38
2022-09-04T08:37:20.848Z,98534.63
2022-09-04T08:39:33.157Z,98533.09
2022-09-04T08:42:02.300Z,98542.19
2022-09-04T08:44:34.528Z,98543.69
2022-09-04T08:47:28.321Z,98539.53
2022-09-04T08:49:56.127Z,98535.81
2022-09-04T08:52:23.668Z,98522.50
2022-09-04T08:54:49.602Z,98517.19
2022-09-04T08:57:25.700Z,98511.06
2022-09-04T09:00:06.710Z,98518.06
2022-09-04T09:02:36.521Z,98518.22
2022-09-04T09:05:19.198Z,98524.41
2022-09-04T09:08:02.185Z,98523.06
2022-09-04T09:10:39.869Z,98524.69
2022-09-04T09:13:21.730Z,98527.63
2022-09-04T09:15:44.691Z,98533.91
2022-09-04T09:18:01.471Z,98541.28
2022-09-04T09:20:20.159Z,98530.63
2022-09-04T09:22:46.392Z,98529.63
2022-09-04T09:25:20.739Z,98535.94
2022-09-04T09:27:51.651Z,98533.69
2022-09-04T09:30:05.309Z,98524.25
2022-09-04T09:32:34.282Z,98530.81
2022-09-04T09:35:08.620Z,98523.31
2022-09-04T09:37:35.186Z,98510.88
2022-09-04T09:40:04.231Z,98527.50
2022-09-04T09:42:41.851Z,98518.06
2022-09-04T09:45:07.117Z,98523.25
2022-09-04T09:47:37.347Z,98523.69
2022-09-04T09:50:04.534Z,98528.03
2022-09-04T09:52:29.621Z,98518.50
2022-09-04T09:55:09.388Z,98516.03
2022-09-04T09:57:49.925Z,98516.66
2022-09-04T10:00:09.947Z,98509.81
2022-09-04T10:02:58.396Z,98504.66
2022-09-04T10:06:01.428Z,98504.88
2022-09-04T10:08:35.630Z,98503.41
2022-09-04T10:11:13.466Z,98497.66
2022-09-04T10:13:37.919Z,98497.16
2022-09-04T10:16:01.234Z,98497.13
2022-09-04T10:18:33.773Z,98502.28
2022-09-04T10:20:55.422Z,98497.44
2022-09-04T10:23:15.398Z,98491.91
2022-09-04T10:25:54.994Z,98491.75
2022-09-04T10:28:26.023Z,98496.56
2022-09-04T10:30:31.192Z,98486.28
2022-09-04T10:33:09.227Z,98481.44
2022-09-04T10:35:25.416Z,98483.69
2022-09-04T10:37:38.903Z,98473.97
2022-09-04T10:40:09.881Z,98486.25
2022-09-04T10:42:27.664Z,98482.00
2022-09-04T10:44:54.760Z,98474.94
2022-09-04T10:47:06.387Z,98478.66
2022-09-04T10:49:43.129Z,98477.19
2022-09-04T10:52:17.232Z,98485.69
2022-09-04T10:54:45.036Z,98480.91
2022-09-04T10:56:57.934Z,98476.84
2022-09-04T10:59:16.069Z,98483.91
2022-09-04T11:01:59.025Z,98477.47
2022-09-04T11:04:38.124Z,98487.81
2022-09-04T11:07:01.219Z,98488.06
2022-09-04T11:09:21.369Z,98480.25
2022-09-04T11:11:39.053Z,98482.75
2022-09-04T11:14:06.621Z,98481.13
2022-09-04T11:16:29.658Z,98480.94
2022-09-04T11:18:53.461Z,98482.34
2022-09-04T11:21:36.072Z,98476.78
2022-09-04T11:23:59.910Z,98474.09
2022-09-04T11:26:29.777Z,98472.25
2022-09-04T11:28:46.665Z,98470.16
2022-09-04T11:31:03.147Z,98458.53
2022-09-04T11:33:48.812Z,98460.97
2022-09-04T11:36:19.294Z,98451.66
2022-09-04T11:38:43.784Z,98453.53
2022-09-04T11:41:24.604Z,98462.03
2022-09-04T11:43:55.300Z,98464.31
2022-09-04T11:46:14.126Z,98462.66
2022-09-04T11:48:43.074Z,98455.06
2022-09-04T11:50:59.997Z,98456.91
2022-09-04T11:53:24.727Z,98456.31
2022-09-04T11:55:40.391Z,98462.56
2022-09-04T11:57:53.512Z,98457.38
2022-09-04T12:00:12.551Z,98464.66
2022-09-04T12:02:27.944Z,98463.00
2022-09-04T12:04:40.160Z,98459.31
2022-09-04T12:06:55.407Z,98464.66
2022-09-04T12:09:30.969Z,98470.63
2022-09-04T12:12:15.339Z,98464.44
2022-09-04T12:14:52.307Z,98465.69
2022-09-04T12:17:32.491Z,98472.72
2022-09-04T12:20:24.058Z,98457.63
2022-09-04T12:23:05.387Z,98464.47
2022-09-04T12:25:41.444Z,98465.50
2022-09-04T12:28:26.652Z,98459.94
2022-09-04T12:30:33.939Z,98463.88
2022-09-04T12:33:08.334Z,98463.25
2022-09-04T12:35:33.669Z,98461.84
2022-09-04T12:38:03.902Z,98457.50
2022-09-04T12:40:41.704Z,98449.44
2022-09-04T12:42:50.035Z,98455.00
2022-09-04T12:44:59.743Z,98448.63
2022-09-04T12:47:13.955Z,98451.94
2022-09-04T12:49:39.227Z,98449.03
2022-09-04T12:51:49.283Z,98455.88
2022-09-04T12:54:14.531Z,98461.84
2022-09-04T12:56:27.817Z,98458.13
2022-09-04T12:58:39.294Z,98458.13
2022-09-04T13:00:49.616Z,98458.09
2022-09-04T13:03:04.162Z,98454.00
2022-09-04T13:05:17.060Z,98454.81
2022-09-04T13:07:30.919Z,98456.28
2022-09-04T13:09:39.609Z,98451.72
2022-09-04T13:11:51.838Z,98456.69
2022-09-04T13:14:04.747Z,98452.13
2022-09-04T13:16:10.593Z,98452.53
2022-09-04T13:18:24.842Z,98458.09
2022-09-04T13:20:35.720Z,98456.03
2022-09-04T13:22:49.948Z,98458.09
2022-09-04T13:25:02.682Z,98451.72
2022-09-04T13:27:26.458Z,98451.91
2022-09-04T13:29:40.269Z,98457.28
2022-09-04T13:31:54.985Z,98460.63
2022-09-04T13:34:03.390Z,98466.19
2022-09-04T13:36:16.434Z,98467.66
2022-09-04T13:38:40.425Z,98457.13
2022-09-04T13:41:04.947Z,98458.56
2022-09-04T13:43:25.482Z,98461.88
2022-09-04T13:45:29.907Z,98464.78
2022-09-04T13:47:49.617Z,98465.59
2022-09-04T13:49:57.368Z,98460.69
2022-09-04T13:52:06.651Z,98462.31
2022-09-04T13:54:13.283Z,98461.09
2022-09-04T13:56:23.189Z,98459.22
2022-09-04T13:58:29.900Z,98456.53
2022-09-04T14:00:34.559Z,98457.19
2022-09-04T14:02:39.184Z,98454.06
2022-09-04T14:04:45.304Z,98453.03
2022-09-04T14:06:49.400Z,98452.00
2022-09-04T14:09:04.493Z,98449.06
2022-09-04T14:11:45.313Z,98442.00
2022-09-04T14:14:07.000Z,98455.59
2022-09-04T14:16:11.595Z,98454.56
2022-09-04T14:18:28.958Z,98448.59
2022-09-04T14:20:40.561Z,98458.50
2022-09-04T14:22:52.166Z,98452.31
2022-09-04T14:25:06.564Z,98457.25
2022-09-04T14:27:23.983Z,98452.72
2022-09-04T14:29:36.141Z,98448.38
2022-09-04T14:31:46.682Z,98452.94
2022-09-04T14:33:57.656Z,98446.50
2022-09-04T14:36:12.579Z,98449.41
2022-09-04T14:38:41.232Z,98458.25
2022-09-04T14:40:49.135Z,98463.38
2022-09-04T14:42:58.095Z,98463.19
2022-09-04T14:45:18.307Z,98461.97
2022-09-04T14:47:29.863Z,98465.47
2022-09-04T14:49:34.498Z,98458.03
2022-09-04T14:51:39.774Z,98467.53
2022-09-04T14:53:47.790Z,98465.25
2022-09-04T14:56:26.384Z,98460.50
2022-09-04T14:58:34.656Z,98458.25
2022-09-04T15:00:57.186Z,98459.91
2022-09-04T15:03:07.656Z,98458.69
2022-09-04T15:05:19.662Z,98455.16
2022-09-04T15:07:35.235Z,98453.06
2022-09-04T15:09:41.070Z,98452.16
2022-09-04T15:11:44.843Z,98455.44
2022-09-04T15:13:52.791Z,98449.28
2022-09-04T15:15:59.492Z,98450.50
2022-09-04T15:18:11.064Z,98449.88
2022-09-04T15:20:21.931Z,98448.00
2022-09-04T15:22:28.276Z,98444.72
2022-09-04T15:24:37.871Z,98448.88
2022-09-04T15:26:46.755Z,98445.19
2022-09-04T15:28:53.199Z,98441.03
2022-09-04T15:31:05.626Z,98445.19
2022-09-04T15:33:10.474Z,98450.53
2022-09-04T15:35:22.952Z,98449.06
2022-09-04T15:37:27.679Z,98443.09
2022-09-04T15:39:36.952Z,98445.72
2022-09-04T15:41:43.697Z,98450.28
2022-09-04T15:43:49.234Z,98442.84
2022-09-04T15:46:00.350Z,98438.94
2022-09-04T15:48:11.229Z,98441.44
2022-09-04T15:50:21.808Z,98443.09
2022-09-04T15:52:31.374Z,98436.88
2022-09-04T15:54:53.689Z,98434.41
2022-09-04T15:57:01.137Z,98437.09
2022-09-04T15:59:12.134Z,98436.06
2022-09-04T16:01:18.334Z,98444.13
2022-09-04T16:03:27.498Z,98439.97
2022-09-04T16:05:35.350Z,98435.66
2022-09-04T16:07:46.693Z,98435.25
2022-09-04T16:09:55.744Z,98432.75
2022-09-04T16:12:06.170Z,98427.59
2022-09-04T16:14:17.254Z,98429.84
2022-09-04T16:16:24.661Z,98433.75
2022-09-04T16:18:40.202Z,98433.50
2022-09-04T16:20:51.299Z,98431.88
2022-09-04T16:22:58.431Z,98417.63
2022-09-04T16:25:08.870Z,98423.84
2022-09-04T16:27:15.034Z,98424.66
2022-09-04T16:29:29.645Z,98414.13
2022-09-04T16:31:36.010Z,98422.38
2022-09-04T16:33:47.087Z,98410.84
2022-09-04T16:35:51.077Z,98411.22
2022-09-04T16:37:58.551Z,98410.59
2022-09-04T16:40:11.842Z,98415.31
2022-09-04T16:42:21.996Z,98416.53
2022-09-04T16:44:28.001Z,98410.38
2022-09-04T16:46:32.502Z,98413.25
2022-09-04T16:48:43.391Z,98411.78
2022-09-04T16:50:52.049Z,98412.81
2022-09-04T16:53:14.329Z,98415.69
2022-09-04T16:55:24.777Z,98406.19
2022-09-04T16:57:29.934Z,98409.06
2022-09-04T16:59:39.334Z,98412.97
2022-09-04T17:01:45.087Z,98414.78
2022-09-04T17:04:13.922Z,98414.19
2022-09-04T17:06:22.713Z,98429.22
2022-09-04T17:08:31.233Z,98418.53
2022-09-04T17:10:42.370Z,98412.31
2022-09-04T17:12:52.560Z,98424.88
2022-09-04T17:15:00.655Z,98428.97
2022-09-04T17:17:08.972Z,98424.22
2022-09-04T17:19:33.007Z,98424.19
2022-09-04T17:28:56.903Z,98429.72
2022-09-04T17:29:00.733Z,98429.69
2022-09-04T17:29:11.130Z,98426.97
2022-09-04T17:29:48.083Z,98429.41
2022-09-04T17:31:54.394Z,98435.16
2022-09-04T17:38:28.356Z,98430.38
2022-09-04T17:40:54.446Z,98421.88
2022-09-04T17:41:31.276Z,98434.53
2022-09-04T17:41:38.209Z,98427.66
2022-09-04T17:44:03.055Z,98424.50
2022-09-04T17:46:17.137Z,98432.66
2022-09-04T17:48:24.113Z,98431.78
2022-09-04T17:50:28.119Z,98426.34
2022-09-04T17:52:53.822Z,98429.16
2022-09-04T17:55:04.286Z,98431.97
2022-09-04T17:57:12.951Z,98428.16
2022-09-04T17:59:21.868Z,98431.59
2022-09-04T18:01:29.975Z,98430.53
2022-09-04T18:03:36.271Z,98441.13
2022-09-04T18:05:49.190Z,98444.72
2022-09-04T18:08:09.653Z,98441.34
2022-09-04T18:10:20.404Z,98444.78
2022-09-04T18:12:31.310Z,98441.84
2022-09-04T18:14:39.529Z,98445.25
2022-09-04T18:17:12.774Z,98454.66
2022-09-04T18:19:18.625Z,98453.72
2022-09-04T18:21:26.634Z,98458.75
2022-09-04T18:23:51.216Z,98460.16
2022-09-04T18:25:59.265Z,98463.56
2022-09-04T18:28:12.478Z,98456.31
2022-09-04T18:33:17.978Z,98466.03
2022-09-04T18:37:16.736Z,98459.75
2022-09-04T18:37:24.926Z,98467.69
2022-09-04T18:37:47.696Z,98464.94
2022-09-04T18:40:04.895Z,98472.84
2022-09-04T18:50:30.250Z,98479.06
2022-09-04T18:50:35.126Z,98484.22
2022-09-04T18:50:35.598Z,98480.78
2022-09-04T18:50:36.801Z,98483.34
2022-09-04T18:52:07.206Z,98487.78
2022-09-04T18:54:12.839Z,98490.00
2022-09-04T18:56:20.782Z,98493.38
2022-09-04T18:58:41.553Z,98494.53
2022-09-04T19:00:49.385Z,98501.06
2022-09-04T19:02:56.678Z,98496.94
2022-09-04T19:05:01.564Z,98500.13
2022-09-04T19:07:08.178Z,98504.13
2022-09-04T19:09:14.784Z,98506.69
2022-09-04T19:11:23.744Z,98509.88
2022-09-04T19:13:30.123Z,98514.25
2022-09-04T19:15:45.629Z,98514.09
2022-09-04T19:17:55.356Z,98512.31
2022-09-04T19:20:02.624Z,98511.31
2022-09-04T19:22:12.824Z,98508.53
2022-09-04T19:24:24.996Z,98504.06
2022-09-04T19:26:41.342Z,98512.75
2022-09-04T19:28:53.186Z,98512.63
2022-09-04T19:30:59.538Z,98517.13
2022-09-04T19:33:07.229Z,98519.03
2022-09-04T19:35:17.119Z,98523.34
2022-09-04T19:40:21.585Z,98517.88
2022-09-04T19:46:01.660Z,98516.88
2022-09-04T19:46:05.991Z,98521.56
2022-09-04T19:46:16.321Z,98516.25
2022-09-04T19:47:28.989Z,98513.78
2022-09-04T19:53:22.751Z,98516.28
2022-09-04T19:53:31.151Z,98517.94
2022-09-04T19:54:36.317Z,98515.78
2022-09-04T19:57:30.918Z,98520.94
2022-09-04T19:59:18.887Z,98516.13
2022-09-04T20:01:25.092Z,98520.09
2022-09-04T20:03:32.678Z,98518.94
2022-09-04T20:05:40.328Z,98517.59
2022-09-04T20:07:49.268Z,98521.94
2022-09-04T20:09:55.979Z,98514.59
2022-09-04T20:12:03.986Z,98512.63
2022-09-04T20:14:15.036Z,98508.78
2022-09-04T20:16:22.574Z,98508.44
2022-09-04T20:18:29.145Z,98510.78
2022-09-04T20:20:36.072Z,98514.75
2022-09-04T20:22:49.429Z,98509.09
2022-09-04T20:25:01.902Z,98507.09
2022-09-04T20:27:10.350Z,98509.38
2022-09-04T20:29:19.238Z,98514.19
2022-09-04T20:31:45.122Z,98511.03
2022-09-04T20:33:49.472Z,98511.38
2022-09-04T20:35:55.561Z,98507.81
2022-09-04T20:38:00.069Z,98508.28
2022-09-04T20:40:12.630Z,98510.78
2022-09-04T20:42:22.402Z,98507.09
2022-09-04T20:44:32.366Z,98509.56
2022-09-04T20:52:40.875Z,98509.22
2022-09-04T20:52:53.305Z,98507.03
2022-09-04T20:52:59.378Z,98499.72
2022-09-04T20:54:29.664Z,98506.94
2022-09-04T20:58:32.257Z,98506.28
2022-09-04T21:03:15.015Z,98511.25
2022-09-04T21:03:17.613Z,98508.06
2022-09-04T21:04:11.611Z,98513.00
2022-09-04T21:06:27.148Z,98510.66
2022-09-04T21:08:34.221Z,98519.09
2022-09-04T21:10:39.209Z,98513.56
2022-09-04T21:12:47.013Z,98506.06
2022-09-04T21:14:55.755Z,98512.34
2022-09-04T21:17:35.171Z,98510.31
2022-09-04T21:20:01.860Z,98506.34
2022-09-04T21:22:32.381Z,98504.16
2022-09-04T21:24:51.367Z,98506.25
2022-09-04T21:27:35.448Z,98502.44
2022-09-04T21:29:50.544Z,98504.53
2022-09-04T21:32:29.956Z,98510.16
2022-09-04T21:34:55.094Z,98511.47
2022-09-04T21:37:02.131Z,98513.59
2022-09-04T21:39:36.988Z,98514.88
2022-09-04T21:41:51.739Z,98517.16
2022-09-04T21:44:17.112Z,98520.28
2022-09-04T21:46:36.602Z,98520.59
2022-09-04T21:48:55.722Z,98521.84
2022-09-04T21:51:28.304Z,98519.00
2022-09-04T21:54:02.904Z,98519.44
2022-09-04T22:02:27.554Z,98521.00
2022-09-04T22:02:36.343Z,98524.09
2022-09-04T22:02:41.527Z,98529.97
2022-09-04T22:04:14.438Z,98524.78
2022-09-04T22:07:36.271Z,98526.03
2022-09-04T22:13:27.693Z,98526.50
2022-09-04T22:13:33.615Z,98529.44
2022-09-04T22:14:05.381Z,98528.09
2022-09-04T22:16:17.905Z,98532.16
2022-09-04T22:18:39.242Z,98536.38
2022-09-04T22:20:55.336Z,98530.53
2022-09-04T22:23:39.699Z,98536.97
2022-09-04T22:25:48.416Z,98535.59
2022-09-04T22:28:25.703Z,98532.28
2022-09-04T22:30:31.118Z,98539.50
2022-09-04T22:33:02.426Z,98535.34
2022-09-04T22:35:36.605Z,98530.50
2022-09-04T22:38:16.398Z,98543.31
2022-09-04T22:40:28.222Z,98540.13
2022-09-04T22:42:52.336Z,98537.09
2022-09-04T22:45:15.070Z,98541.84
2022-09-04T22:47:32.111Z,98540.28
2022-09-04T22:49:49.251Z,98546.69
2022-09-04T22:52:21.986Z,98549.34
2022-09-04T22:54:32.687Z,98549.50
2022-09-04T22:56:45.634Z,98550.63
2022-09-04T22:59:26.751Z,98550.22
2022-09-04T23:01:49.101Z,98544.38
2022-09-04T23:04:04.988Z,98544.53
2022-09-04T23:08:16.289Z,98553.44
2022-09-04T23:13:48.522Z,98551.91
2022-09-04T23:14:01.020Z,98555.00
2022-09-04T23:14:23.219Z,98551.69
2022-09-04T23:16:38.194Z,98554.47
2022-09-04T23:26:32.480Z,98558.06
2022-09-04T23:26:39.093Z,98553.88
2022-09-04T23:26:49.026Z,98557.53
2022-09-04T23:27:29.783Z,98550.84
2022-09-04T23:29:47.961Z,98549.47
2022-09-04T23:32:07.281Z,98550.59
2022-09-04T23:34:44.037Z,98551.03
2022-09-04T23:37:15.438Z,98545.31
2022-09-04T23:39:34.287Z,98555.19
2022-09-04T23:41:53.309Z,98551.28
2022-09-04T23:44:35.905Z,98545.47
2022-09-04T23:46:50.192Z,98543.97
2022-09-04T23:49:18.927Z,98532.00
2022-09-04T23:51:27.912Z,98544.53
2022-09-04T23:53:37.022Z,98547.16
2022-09-04T23:55:58.516Z,98545.63
2022-09-04T23:58:25.562Z,98545.78
